createdAt,value
2019-04-26T00:00:00.114Z,15.50
2019-04-26T00:02:46.477Z,15.50
2019-04-26T00:05:34.992Z,15.50
2019-04-26T00:08:17.980Z,15.50
2019-04-26T00:11:04.739Z,15.40
2019-04-26T00:14:06.226Z,15.40
2019-04-26T00:16:55.357Z,15.40
2019-04-26T00:19:40.349Z,15.40
2019-04-26T00:22:25.482Z,15.40
2019-04-26T00:25:11.103Z,15.40
2019-04-26T00:27:56.207Z,15.30
2019-04-26T00:30:41.072Z,15.30
2019-04-26T00:33:25.889Z,15.20
2019-04-26T00:36:10.522Z,15.20
2019-04-26T00:38:54.972Z,15.20
2019-04-26T00:41:39.823Z,15.20
2019-04-26T00:44:24.757Z,15.10
2019-04-26T00:47:10.201Z,15.10
2019-04-26T00:49:55.320Z,15.00
2019-04-26T00:52:40.139Z,15.00
2019-04-26T00:55:25.413Z,15.00
2019-04-26T00:58:10.786Z,14.90
2019-04-26T01:00:55.361Z,14.90
2019-04-26T01:03:40.143Z,14.80
2019-04-26T01:06:26.855Z,14.80
2019-04-26T01:09:11.506Z,14.80
2019-04-26T01:11:56.258Z,14.70
2019-04-26T01:14:40.812Z,14.70
2019-04-26T01:17:25.426Z,14.70
2019-04-26T01:20:10.359Z,14.70
2019-04-26T01:22:58.803Z,14.70
2019-04-26T01:25:59.658Z,14.80
2019-04-26T01:28:53.295Z,14.80
2019-04-26T01:31:41.304Z,14.80
2019-04-26T01:34:26.164Z,14.80
2019-04-26T01:37:11.113Z,14.80
2019-04-26T01:40:01.136Z,14.80
2019-04-26T01:42:49.411Z,14.80
2019-04-26T01:45:37.353Z,14.80
2019-04-26T01:48:58.672Z,14.80
2019-04-26T01:51:58.931Z,14.80
2019-04-26T01:54:44.428Z,14.80
2019-04-26T01:57:31.482Z,14.80
2019-04-26T02:00:17.999Z,14.80
2019-04-26T02:03:07.897Z,14.80
2019-04-26T02:05:52.622Z,14.80
2019-04-26T02:08:36.962Z,14.80
2019-04-26T02:11:23.509Z,14.80
2019-04-26T02:14:08.852Z,14.70
2019-04-26T02:16:53.535Z,14.70
2019-04-26T02:19:38.020Z,14.70
2019-04-26T02:22:36.427Z,14.70
2019-04-26T02:25:20.925Z,14.60
2019-04-26T02:28:05.538Z,14.60
2019-04-26T02:30:50.677Z,14.60
2019-04-26T02:33:36.738Z,14.60
2019-04-26T02:36:21.897Z,14.50
2019-04-26T02:39:15.694Z,14.50
2019-04-26T02:42:03.065Z,14.50
2019-04-26T02:44:56.283Z,14.50
2019-04-26T02:47:48.922Z,14.40
2019-04-26T02:50:38.344Z,14.40
2019-04-26T02:53:33.565Z,14.40
2019-04-26T02:56:30.267Z,14.40
2019-04-26T02:59:32.517Z,14.40
2019-04-26T03:02:20.003Z,14.30
2019-04-26T03:05:06.173Z,14.30
2019-04-26T03:07:54.921Z,14.30
2019-04-26T03:10:43.682Z,14.40
2019-04-26T03:13:34.876Z,14.40
2019-04-26T03:16:26.180Z,14.40
2019-04-26T03:19:19.264Z,14.40
2019-04-26T03:22:07.460Z,14.40
2019-04-26T03:25:17.143Z,14.40
2019-04-26T03:28:20.366Z,14.40
2019-04-26T03:31:14.083Z,14.40
2019-04-26T03:34:05.557Z,14.50
2019-04-26T03:37:21.104Z,14.50
2019-04-26T03:40:20.270Z,14.50
2019-04-26T03:43:11.109Z,14.50
2019-04-26T03:46:19.518Z,14.50
2019-04-26T03:49:20.112Z,14.40
2019-04-26T03:52:24.947Z,14.40
2019-04-26T03:55:27.814Z,14.30
2019-04-26T03:58:23.467Z,14.30
2019-04-26T04:01:12.884Z,14.30
2019-04-26T04:04:16.646Z,14.30
2019-04-26T04:07:05.285Z,14.20
2019-04-26T04:09:53.605Z,14.20
2019-04-26T04:12:46.308Z,14.20
2019-04-26T04:15:37.941Z,14.30
2019-04-26T04:18:29.146Z,14.30
2019-04-26T04:21:34.548Z,14.30
2019-04-26T04:24:22.705Z,14.40
2019-04-26T04:27:30.407Z,14.30
2019-04-26T04:30:24.613Z,14.30
2019-04-26T04:33:16.054Z,14.30
2019-04-26T04:36:04.621Z,14.40
2019-04-26T04:39:13.362Z,14.30
2019-04-26T04:42:19.649Z,14.30
2019-04-26T04:45:35.994Z,14.30
2019-04-26T04:48:38.471Z,14.40
2019-04-26T04:51:44.863Z,14.40
2019-04-26T04:55:07.412Z,14.40
2019-04-26T04:58:03.552Z,14.30
2019-04-26T05:01:05.874Z,14.30
2019-04-26T05:04:08.110Z,14.30
2019-04-26T05:07:22.398Z,14.20
2019-04-26T05:10:16.627Z,14.20
2019-04-26T05:13:17.079Z,14.20
2019-04-26T05:16:33.054Z,14.20
2019-04-26T05:19:42.520Z,14.10
2019-04-26T05:22:55.448Z,14.10
2019-04-26T05:26:20.869Z,14.10
2019-04-26T05:29:10.932Z,14.10
2019-04-26T05:32:05.727Z,14.00
2019-04-26T05:35:03.220Z,14.00
2019-04-26T05:38:18.349Z,14.00
2019-04-26T05:41:23.908Z,14.00
2019-04-26T05:44:19.629Z,14.00
2019-04-26T05:47:21.936Z,14.00
2019-04-26T05:50:38.630Z,13.90
2019-04-26T05:54:08.862Z,14.00
2019-04-26T05:57:20.929Z,13.90
2019-04-26T06:00:31.419Z,13.90
2019-04-26T06:04:12.706Z,13.90
2019-04-26T06:07:23.446Z,13.90
2019-04-26T06:10:31.571Z,13.90
2019-04-26T06:13:25.062Z,13.80
2019-04-26T06:16:15.643Z,13.80
2019-04-26T06:19:24.714Z,13.80
2019-04-26T06:22:16.419Z,13.80
2019-04-26T06:25:30.751Z,13.80
2019-04-26T06:28:42.087Z,13.80
2019-04-26T06:31:39.869Z,13.80
2019-04-26T06:34:47.916Z,13.80
2019-04-26T06:37:50.140Z,13.80
2019-04-26T06:40:47.814Z,13.70
2019-04-26T06:43:40.819Z,13.70
2019-04-26T06:46:42.452Z,13.70
2019-04-26T06:49:50.922Z,13.70
2019-04-26T06:52:39.553Z,13.70
2019-04-26T06:55:31.408Z,13.80
2019-04-26T06:58:51.592Z,13.70
2019-04-26T07:01:59.062Z,13.70
2019-04-26T07:04:53.712Z,13.70
2019-04-26T07:07:50.971Z,13.70
2019-04-26T07:10:51.322Z,13.80
2019-04-26T07:13:47.922Z,13.80
2019-04-26T07:16:36.236Z,13.80
2019-04-26T07:19:58.395Z,13.80
2019-04-26T07:23:22.496Z,13.80
2019-04-26T07:26:27.781Z,13.70
2019-04-26T07:29:29.010Z,13.70
2019-04-26T07:32:20.104Z,13.70
2019-04-26T07:35:30.111Z,13.60
2019-04-26T07:38:23.468Z,13.60
2019-04-26T07:41:34.139Z,13.60
2019-04-26T07:44:24.286Z,13.60
2019-04-26T07:47:36.520Z,13.60
2019-04-26T07:50:39.549Z,13.70
2019-04-26T07:53:49.772Z,13.70
2019-04-26T07:57:03.210Z,13.70
2019-04-26T08:00:15.507Z,13.70
2019-04-26T08:03:21.427Z,13.70
2019-04-26T08:06:19.434Z,13.80
2019-04-26T08:09:08.101Z,13.90
2019-04-26T08:12:04.452Z,13.90
2019-04-26T08:15:24.903Z,14.00
2019-04-26T08:18:18.987Z,14.00
2019-04-26T08:21:12.745Z,14.00
2019-04-26T08:24:11.016Z,14.10
2019-04-26T08:27:23.260Z,14.10
2019-04-26T08:30:14.392Z,14.10
2019-04-26T08:33:02.143Z,14.10
2019-04-26T08:35:53.247Z,14.10
2019-04-26T08:38:36.997Z,14.10
2019-04-26T08:41:22.841Z,14.10
2019-04-26T08:44:09.753Z,14.20
2019-04-26T08:47:00.775Z,14.20
2019-04-26T08:49:56.573Z,14.30
2019-04-26T08:52:44.438Z,14.30
2019-04-26T08:55:32.463Z,14.40
2019-04-26T08:58:20.723Z,14.40
2019-04-26T09:01:17.205Z,14.40
2019-04-26T09:04:06.800Z,14.40
2019-04-26T09:07:02.884Z,14.50
2019-04-26T09:09:57.017Z,14.50
2019-04-26T09:12:40.703Z,14.60
2019-04-26T09:16:02.661Z,14.60
2019-04-26T09:18:52.610Z,14.60
2019-04-26T09:21:38.502Z,14.60
2019-04-26T09:24:26.490Z,14.60
2019-04-26T09:27:16.993Z,14.70
2019-04-26T09:30:07.872Z,14.60
2019-04-26T09:32:58.317Z,14.50
2019-04-26T09:35:43.362Z,14.50
2019-04-26T09:38:27.781Z,14.50
2019-04-26T09:41:12.374Z,14.50
2019-04-26T09:44:01.395Z,14.50
2019-04-26T09:47:02.841Z,14.50
2019-04-26T09:49:51.878Z,14.60
2019-04-26T09:52:44.060Z,14.60
2019-04-26T09:55:35.128Z,14.60
2019-04-26T09:58:15.042Z,14.60
2019-04-26T10:00:59.740Z,14.60
2019-04-26T10:03:44.229Z,14.70
2019-04-26T10:06:29.648Z,14.80
2019-04-26T10:09:20.698Z,15.00
2019-04-26T10:12:20.736Z,15.20
2019-04-26T10:15:15.798Z,15.30
2019-04-26T10:18:01.956Z,15.40
2019-04-26T10:20:46.216Z,15.50
2019-04-26T10:23:30.934Z,15.50
2019-04-26T10:26:15.293Z,15.50
2019-04-26T10:28:59.906Z,15.60
2019-04-26T10:31:47.549Z,15.60
2019-04-26T10:34:30.932Z,15.60
2019-04-26T10:37:15.627Z,15.70
2019-04-26T10:40:00.281Z,15.90
2019-04-26T10:42:44.734Z,16.00
2019-04-26T10:45:29.818Z,15.90
2019-04-26T10:48:15.529Z,15.80
2019-04-26T10:51:03.269Z,15.70
2019-04-26T10:53:50.380Z,15.70
2019-04-26T10:56:42.468Z,15.70
2019-04-26T10:59:31.601Z,15.70
2019-04-26T11:02:19.134Z,15.80
2019-04-26T11:05:05.452Z,15.80
2019-04-26T11:07:49.740Z,15.90
2019-04-26T11:10:34.838Z,15.90
2019-04-26T11:13:21.074Z,15.90
2019-04-26T11:16:07.245Z,16.00
2019-04-26T11:18:52.325Z,16.10
2019-04-26T11:21:37.174Z,16.20
2019-04-26T11:24:22.338Z,16.30
2019-04-26T11:27:09.678Z,16.30
2019-04-26T11:29:54.322Z,16.30
2019-04-26T11:32:40.339Z,16.20
2019-04-26T11:35:29.140Z,16.10
2019-04-26T11:38:12.478Z,16.00
2019-04-26T11:41:05.940Z,15.90
2019-04-26T11:43:44.209Z,15.80
2019-04-26T11:46:30.305Z,15.80
2019-04-26T11:49:14.945Z,15.80
2019-04-26T11:52:02.792Z,15.70
2019-04-26T11:54:46.883Z,15.70
2019-04-26T11:57:31.661Z,15.80
2019-04-26T12:00:21.615Z,15.80
2019-04-26T12:03:06.283Z,15.70
2019-04-26T12:05:55.828Z,15.70
2019-04-26T12:08:51.586Z,15.80
2019-04-26T12:11:36.241Z,15.70
2019-04-26T12:14:21.466Z,15.80
2019-04-26T12:17:06.556Z,15.70
2019-04-26T12:19:52.229Z,15.70
2019-04-26T12:22:39.327Z,15.70
2019-04-26T12:25:25.235Z,15.80
2019-04-26T12:28:10.191Z,15.80
2019-04-26T12:30:58.436Z,15.90
2019-04-26T12:33:45.042Z,15.90
2019-04-26T12:36:29.168Z,15.90
2019-04-26T12:39:15.865Z,16.00
2019-04-26T12:42:01.614Z,16.10
2019-04-26T12:44:53.948Z,16.10
2019-04-26T12:47:46.006Z,16.10
2019-04-26T12:50:35.158Z,16.10
2019-04-26T12:53:18.147Z,16.30
2019-04-26T12:56:03.117Z,16.60
2019-04-26T12:58:50.021Z,16.80
2019-04-26T13:01:34.377Z,17.20
2019-04-26T13:04:18.936Z,17.60
2019-04-26T13:07:23.853Z,17.90
2019-04-26T13:10:06.490Z,18.10
2019-04-26T13:12:55.967Z,18.30
2019-04-26T13:16:03.834Z,18.30
2019-04-26T13:18:48.328Z,18.10
2019-04-26T13:21:36.781Z,17.70
2019-04-26T13:24:19.592Z,17.40
2019-04-26T13:27:06.026Z,17.20
2019-04-26T13:30:01.711Z,17.00
2019-04-26T13:32:37.286Z,16.90
2019-04-26T13:35:21.983Z,16.80
2019-04-26T13:38:08.685Z,16.80
2019-04-26T13:40:53.383Z,16.70
2019-04-26T13:43:38.004Z,16.60
2019-04-26T13:46:24.570Z,16.60
2019-04-26T13:49:14.212Z,16.60
2019-04-26T13:51:58.112Z,16.50
2019-04-26T13:54:42.932Z,16.50
2019-04-26T13:57:27.326Z,16.60
2019-04-26T14:00:14.411Z,16.80
2019-04-26T14:02:59.189Z,16.90
2019-04-26T14:05:44.008Z,17.10
2019-04-26T14:08:28.960Z,17.30
2019-04-26T14:11:13.648Z,17.50
2019-04-26T14:14:00.012Z,17.80
2019-04-26T14:16:45.694Z,18.50
2019-04-26T14:19:30.183Z,18.90
2019-04-26T14:22:18.339Z,18.80
2019-04-26T14:25:06.383Z,18.50
2019-04-26T14:27:52.282Z,18.60
2019-04-26T14:30:41.705Z,18.60
2019-04-26T14:33:27.040Z,18.60
2019-04-26T14:36:17.477Z,18.50
2019-04-26T14:39:05.617Z,18.40
2019-04-26T14:41:44.235Z,18.30
2019-04-26T14:44:31.189Z,18.10
2019-04-26T14:47:18.150Z,18.00
2019-04-26T14:50:13.736Z,17.90
2019-04-26T14:52:52.439Z,17.70
2019-04-26T14:55:37.520Z,17.70
2019-04-26T14:58:04.959Z,17.60
2019-04-26T15:00:33.982Z,17.60
2019-04-26T15:03:05.001Z,17.70
2019-04-26T15:05:33.373Z,17.80
2019-04-26T15:08:17.889Z,17.80
2019-04-26T15:11:04.337Z,17.90
2019-04-26T15:13:30.441Z,17.70
2019-04-26T15:15:56.651Z,17.60
2019-04-26T15:18:42.524Z,17.50
2019-04-26T15:21:27.483Z,17.40
2019-04-26T15:24:13.715Z,17.30
2019-04-26T15:27:01.673Z,17.20
2019-04-26T15:29:44.661Z,17.10
2019-04-26T15:32:32.828Z,17.00
2019-04-26T15:35:17.962Z,17.00
2019-04-26T15:38:03.413Z,17.00
2019-04-26T15:40:59.098Z,17.10
2019-04-26T15:43:50.232Z,17.20
2019-04-26T15:46:44.119Z,17.20
2019-04-26T15:49:45.649Z,17.30
2019-04-26T15:52:34.083Z,17.30
2019-04-26T15:55:17.329Z,17.30
2019-04-26T15:58:08.187Z,17.30
2019-04-26T16:00:49.412Z,17.30
2019-04-26T16:03:36.720Z,17.30
2019-04-26T16:06:21.153Z,17.30
2019-04-26T16:09:07.447Z,17.20
2019-04-26T16:11:53.118Z,17.10
2019-04-26T16:14:39.420Z,17.00
2019-04-26T16:17:24.164Z,17.00
2019-04-26T16:20:09.392Z,17.00
2019-04-26T16:22:54.547Z,16.90
2019-04-26T16:25:39.534Z,16.90
2019-04-26T16:28:33.334Z,16.90
2019-04-26T16:31:26.323Z,16.90
2019-04-26T16:34:16.601Z,16.90
2019-04-26T16:37:02.935Z,16.90
2019-04-26T16:39:48.721Z,16.90
2019-04-26T16:42:34.174Z,16.90
2019-04-26T16:45:19.002Z,16.90
2019-04-26T16:48:04.122Z,16.90
2019-04-26T16:50:48.999Z,16.90
2019-04-26T16:53:46.306Z,16.80
2019-04-26T16:56:25.971Z,16.90
2019-04-26T16:59:07.405Z,16.90
2019-04-26T17:01:53.619Z,16.90
2019-04-26T17:04:38.471Z,17.00
2019-04-26T17:07:27.356Z,17.10
2019-04-26T17:10:12.011Z,17.20
2019-04-26T17:12:57.229Z,17.20
2019-04-26T17:15:42.890Z,17.20
2019-04-26T17:18:28.112Z,17.10
2019-04-26T17:21:17.585Z,17.00
2019-04-26T17:24:09.340Z,16.90
2019-04-26T17:26:54.942Z,16.90
2019-04-26T17:29:39.726Z,16.80
2019-04-26T17:32:24.575Z,16.70
2019-04-26T17:35:09.659Z,16.70
2019-04-26T17:37:57.350Z,16.60
2019-04-26T17:40:41.321Z,16.50
2019-04-26T17:43:26.033Z,16.40
2019-04-26T17:46:14.665Z,16.30
2019-04-26T17:48:57.798Z,16.30
2019-04-26T17:51:44.448Z,16.20
2019-04-26T17:54:44.183Z,16.20
2019-04-26T17:57:15.996Z,16.10
2019-04-26T18:00:07.820Z,16.10
2019-04-26T18:02:48.427Z,16.00
2019-04-26T18:05:44.936Z,16.00
2019-04-26T18:08:36.182Z,16.00
2019-04-26T18:11:07.283Z,16.00
2019-04-26T18:13:52.363Z,16.00
2019-04-26T18:16:39.483Z,16.00
2019-04-26T18:19:35.180Z,16.00
2019-04-26T18:22:23.235Z,16.10
2019-04-26T18:25:11.278Z,16.10
2019-04-26T18:27:55.200Z,16.10
2019-04-26T18:30:44.127Z,16.10
2019-04-26T18:33:27.275Z,16.10
2019-04-26T18:36:13.125Z,16.00
2019-04-26T18:38:57.930Z,16.00
2019-04-26T18:41:42.813Z,15.90
2019-04-26T18:44:36.307Z,15.80
2019-04-26T18:47:27.982Z,15.70
2019-04-26T18:50:09.665Z,15.60
2019-04-26T18:52:56.513Z,15.50
2019-04-26T18:55:43.187Z,15.40
2019-04-26T18:58:30.215Z,15.40
2019-04-26T19:01:17.087Z,15.30
2019-04-26T19:04:09.473Z,15.10
2019-04-26T19:06:48.884Z,15.10
2019-04-26T19:09:55.937Z,14.90
2019-04-26T19:12:23.316Z,14.90
2019-04-26T19:15:11.494Z,14.80
2019-04-26T19:18:05.312Z,14.70
2019-04-26T19:20:52.131Z,14.60
2019-04-26T19:23:37.125Z,14.50
2019-04-26T19:26:32.406Z,14.40
2019-04-26T19:29:16.271Z,14.40
2019-04-26T19:31:56.594Z,14.30
2019-04-26T19:34:42.757Z,14.20
2019-04-26T19:37:30.457Z,14.10
2019-04-26T19:40:14.706Z,14.10
2019-04-26T19:43:02.125Z,14.00
2019-04-26T19:45:57.348Z,14.00
2019-04-26T19:49:00.072Z,13.90
2019-04-26T19:51:49.794Z,13.80
2019-04-26T19:54:42.826Z,13.80
2019-04-26T19:57:34.542Z,13.80
2019-04-26T20:00:16.817Z,13.80
2019-04-26T20:03:01.736Z,13.80
2019-04-26T20:05:46.976Z,13.70
2019-04-26T20:08:35.259Z,13.70
2019-04-26T20:11:19.232Z,13.70
2019-04-26T20:14:05.200Z,13.60
2019-04-26T20:16:50.127Z,13.60
2019-04-26T20:19:37.599Z,13.50
2019-04-26T20:22:28.234Z,13.50
2019-04-26T20:25:11.775Z,13.40
2019-04-26T20:27:59.779Z,13.40
2019-04-26T20:30:48.338Z,13.30
2019-04-26T20:33:35.005Z,13.30
2019-04-26T20:36:21.552Z,13.20
2019-04-26T20:39:07.054Z,13.20
2019-04-26T20:42:01.158Z,13.10
2019-04-26T20:44:50.306Z,13.00
2019-04-26T20:47:25.357Z,13.00
2019-04-26T20:50:11.975Z,13.00
2019-04-26T20:53:00.753Z,12.90
2019-04-26T20:55:46.966Z,12.90
2019-04-26T20:58:30.749Z,12.80
2019-04-26T21:01:16.255Z,12.80
2019-04-26T21:04:01.974Z,12.80
2019-04-26T21:06:46.896Z,12.70
2019-04-26T21:09:32.300Z,12.70
2019-04-26T21:12:18.461Z,12.60
2019-04-26T21:15:04.056Z,12.60
2019-04-26T21:17:48.768Z,12.50
2019-04-26T21:20:36.347Z,12.50
2019-04-26T21:23:22.143Z,12.50
2019-04-26T21:26:25.584Z,12.40
2019-04-26T21:29:13.439Z,12.40
2019-04-26T21:32:06.836Z,12.30
2019-04-26T21:34:53.960Z,12.30
2019-04-26T21:37:40.819Z,12.20
2019-04-26T21:40:27.686Z,12.10
2019-04-26T21:43:12.622Z,12.10
2019-04-26T21:46:07.344Z,12.10
2019-04-26T21:48:44.849Z,12.00
2019-04-26T21:51:29.627Z,12.00
2019-04-26T21:54:17.738Z,11.90
2019-04-26T21:57:01.297Z,11.90
2019-04-26T21:59:46.333Z,11.90
2019-04-26T22:02:36.105Z,11.80
2019-04-26T22:05:18.187Z,11.70
2019-04-26T22:08:03.779Z,11.70
2019-04-26T22:10:49.095Z,11.70
2019-04-26T22:13:41.523Z,11.60
2019-04-26T22:16:45.648Z,11.60
2019-04-26T22:19:35.513Z,11.60
2019-04-26T22:22:23.207Z,11.50
2019-04-26T22:25:08.972Z,11.50
2019-04-26T22:28:00.189Z,11.50
2019-04-26T22:30:41.153Z,11.50
2019-04-26T22:33:27.390Z,11.40
2019-04-26T22:36:13.152Z,11.40
2019-04-26T22:39:01.807Z,11.40
2019-04-26T22:41:44.623Z,11.40
2019-04-26T22:44:32.867Z,11.40
2019-04-26T22:47:19.632Z,11.30
2019-04-26T22:50:04.979Z,11.30
2019-04-26T22:52:51.494Z,11.30
2019-04-26T22:55:36.609Z,11.20
2019-04-26T22:58:25.509Z,11.20
2019-04-26T23:01:08.484Z,11.20
2019-04-26T23:03:53.293Z,11.20
2019-04-26T23:06:37.808Z,11.10
2019-04-26T23:09:23.348Z,11.10
2019-04-26T23:12:27.958Z,11.10
2019-04-26T23:15:25.930Z,11.00
2019-04-26T23:18:15.922Z,11.00
2019-04-26T23:21:03.562Z,11.00
2019-04-26T23:23:48.384Z,10.90
2019-04-26T23:26:33.435Z,10.90
2019-04-26T23:29:19.007Z,10.90
2019-04-26T23:32:04.271Z,10.90
2019-04-26T23:34:49.280Z,10.80
2019-04-26T23:37:34.137Z,10.80
2019-04-26T23:40:20.787Z,10.80
2019-04-26T23:43:05.843Z,10.80
2019-04-26T23:45:50.665Z,10.80
2019-04-26T23:48:35.579Z,10.80
2019-04-26T23:51:20.404Z,10.80
2019-04-26T23:54:05.425Z,10.80
2019-04-26T23:56:50.248Z,10.80
2019-04-26T23:59:35.215Z,10.80
